sensor_id;sensor_type;location;lat;lon;timestamp;P1;durP1;ratioP1;P2;durP2;ratioP2
11139;SDS011;5624;49.388;11.350;2023-08-06T00:02:02;7.95;;;5.07;;
11139;SDS011;5624;49.388;11.350;2023-08-06T00:04:28;5.20;;;4.70;;
11139;SDS011;5624;49.388;11.350;2023-08-06T00:06:54;6.22;;;4.85;;
11139;SDS011;5624;49.388;11.350;2023-08-06T00:09:19;7.20;;;5.68;;
11139;SDS011;5624;49.388;11.350;2023-08-06T00:11:45;7.38;;;5.82;;
11139;SDS011;5624;49.388;11.350;2023-08-06T00:14:11;5.78;;;4.88;;
11139;SDS011;5624;49.388;11.350;2023-08-06T00:16:40;6.45;;;4.78;;
11139;SDS011;5624;49.388;11.350;2023-08-06T00:19:07;6.07;;;4.88;;
11139;SDS011;5624;49.388;11.350;2023-08-06T00:21:33;8.25;;;5.05;;
11139;SDS011;5624;49.388;11.350;2023-08-06T00:23:58;6.00;;;4.72;;
11139;SDS011;5624;49.388;11.350;2023-08-06T00:26:24;6.05;;;4.53;;
11139;SDS011;5624;49.388;11.350;2023-08-06T00:28:50;7.20;;;5.40;;
11139;SDS011;5624;49.388;11.350;2023-08-06T00:31:15;4.22;;;3.35;;
11139;SDS011;5624;49.388;11.350;2023-08-06T00:33:41;5.63;;;3.67;;
11139;SDS011;5624;49.388;11.350;2023-08-06T00:36:06;6.30;;;3.65;;
11139;SDS011;5624;49.388;11.350;2023-08-06T00:38:32;5.82;;;3.53;;
11139;SDS011;5624;49.388;11.350;2023-08-06T00:40:57;6.00;;;3.58;;
11139;SDS011;5624;49.388;11.350;2023-08-06T00:43:23;6.20;;;4.28;;
11139;SDS011;5624;49.388;11.350;2023-08-06T00:45:48;7.00;;;4.53;;
11139;SDS011;5624;49.388;11.350;2023-08-06T00:48:14;6.80;;;5.07;;
11139;SDS011;5624;49.388;11.350;2023-08-06T00:50:40;5.28;;;4.25;;
11139;SDS011;5624;49.388;11.350;2023-08-06T00:53:05;5.38;;;4.40;;
11139;SDS011;5624;49.388;11.350;2023-08-06T00:55:31;6.03;;;4.82;;
11139;SDS011;5624;49.388;11.350;2023-08-06T00:57:58;5.57;;;5.07;;
11139;SDS011;5624;49.388;11.350;2023-08-06T01:00:24;5.57;;;4.82;;
11139;SDS011;5624;49.388;11.350;2023-08-06T01:02:50;6.10;;;4.68;;
11139;SDS011;5624;49.388;11.350;2023-08-06T01:05:15;5.45;;;4.95;;
11139;SDS011;5624;49.388;11.350;2023-08-06T01:14:06;6.80;;;4.90;;
11139;SDS011;5624;49.388;11.350;2023-08-06T01:16:14;5.72;;;5.03;;
11139;SDS011;5624;49.388;11.350;2023-08-06T01:18:41;5.90;;;5.30;;
11139;SDS011;5624;49.388;11.350;2023-08-06T01:21:08;5.78;;;5.18;;
11139;SDS011;5624;49.388;11.350;2023-08-06T01:23:34;6.22;;;5.13;;
11139;SDS011;5624;49.388;11.350;2023-08-06T01:26:18;5.55;;;4.95;;
11139;SDS011;5624;49.388;11.350;2023-08-06T01:28:59;5.63;;;5.05;;
11139;SDS011;5624;49.388;11.350;2023-08-06T01:31:37;5.20;;;4.70;;
11139;SDS011;5624;49.388;11.350;2023-08-06T01:34:07;6.20;;;5.60;;
11139;SDS011;5624;49.388;11.350;2023-08-06T01:36:37;6.82;;;4.97;;
11139;SDS011;5624;49.388;11.350;2023-08-06T01:39:04;7.75;;;5.00;;
11139;SDS011;5624;49.388;11.350;2023-08-06T01:41:30;6.10;;;4.80;;
11139;SDS011;5624;49.388;11.350;2023-08-06T01:43:56;6.38;;;4.88;;
11139;SDS011;5624;49.388;11.350;2023-08-06T01:46:21;5.55;;;4.88;;
11139;SDS011;5624;49.388;11.350;2023-08-06T01:48:47;5.35;;;4.80;;
11139;SDS011;5624;49.388;11.350;2023-08-06T01:51:12;6.40;;;4.80;;
11139;SDS011;5624;49.388;11.350;2023-08-06T01:53:38;5.35;;;4.85;;
11139;SDS011;5624;49.388;11.350;2023-08-06T01:56:03;7.35;;;5.68;;
11139;SDS011;5624;49.388;11.350;2023-08-06T01:58:29;5.47;;;4.00;;
11139;SDS011;5624;49.388;11.350;2023-08-06T02:00:54;4.75;;;3.97;;
11139;SDS011;5624;49.388;11.350;2023-08-06T02:03:20;6.27;;;5.37;;
11139;SDS011;5624;49.388;11.350;2023-08-06T02:05:45;6.22;;;5.65;;
11139;SDS011;5624;49.388;11.350;2023-08-06T02:08:11;6.88;;;6.03;;
11139;SDS011;5624;49.388;11.350;2023-08-06T02:10:36;7.80;;;5.72;;
11139;SDS011;5624;49.388;11.350;2023-08-06T02:13:02;5.50;;;5.00;;
11139;SDS011;5624;49.388;11.350;2023-08-06T02:15:28;6.22;;;5.57;;
11139;SDS011;5624;49.388;11.350;2023-08-06T02:17:53;5.95;;;5.22;;
11139;SDS011;5624;49.388;11.350;2023-08-06T02:20:19;7.38;;;5.30;;
11139;SDS011;5624;49.388;11.350;2023-08-06T02:22:44;6.43;;;4.22;;
11139;SDS011;5624;49.388;11.350;2023-08-06T02:25:10;8.25;;;4.65;;
11139;SDS011;5624;49.388;11.350;2023-08-06T02:27:35;5.78;;;4.13;;
11139;SDS011;5624;49.388;11.350;2023-08-06T02:30:02;4.90;;;4.40;;
11139;SDS011;5624;49.388;11.350;2023-08-06T02:32:29;7.07;;;5.50;;
11139;SDS011;5624;49.388;11.350;2023-08-06T02:34:56;8.57;;;5.30;;
11139;SDS011;5624;49.388;11.350;2023-08-06T02:37:22;7.25;;;5.45;;
11139;SDS011;5624;49.388;11.350;2023-08-06T02:39:47;8.45;;;5.68;;
11139;SDS011;5624;49.388;11.350;2023-08-06T02:42:13;8.00;;;5.72;;
11139;SDS011;5624;49.388;11.350;2023-08-06T02:44:38;6.85;;;4.80;;
11139;SDS011;5624;49.388;11.350;2023-08-06T02:47:04;5.43;;;4.70;;
11139;SDS011;5624;49.388;11.350;2023-08-06T02:49:30;8.85;;;4.65;;
11139;SDS011;5624;49.388;11.350;2023-08-06T02:51:55;5.30;;;4.35;;
11139;SDS011;5624;49.388;11.350;2023-08-06T02:54:21;5.95;;;4.25;;
11139;SDS011;5624;49.388;11.350;2023-08-06T02:56:46;5.95;;;5.35;;
11139;SDS011;5624;49.388;11.350;2023-08-06T02:59:12;6.22;;;5.28;;
11139;SDS011;5624;49.388;11.350;2023-08-06T03:01:38;7.00;;;5.80;;
11139;SDS011;5624;49.388;11.350;2023-08-06T03:04:04;6.25;;;5.65;;
11139;SDS011;5624;49.388;11.350;2023-08-06T03:06:30;5.50;;;5.00;;
11139;SDS011;5624;49.388;11.350;2023-08-06T03:08:55;9.55;;;5.38;;
11139;SDS011;5624;49.388;11.350;2023-08-06T03:11:21;6.43;;;5.50;;
11139;SDS011;5624;49.388;11.350;2023-08-06T03:13:47;4.95;;;4.43;;
11139;SDS011;5624;49.388;11.350;2023-08-06T03:16:13;6.47;;;5.47;;
11139;SDS011;5624;49.388;11.350;2023-08-06T03:18:39;5.53;;;4.73;;
11139;SDS011;5624;49.388;11.350;2023-08-06T03:21:05;6.32;;;5.05;;
11139;SDS011;5624;49.388;11.350;2023-08-06T03:23:30;6.23;;;5.27;;
11139;SDS011;5624;49.388;11.350;2023-08-06T03:25:56;5.13;;;4.60;;
11139;SDS011;5624;49.388;11.350;2023-08-06T03:28:25;5.43;;;4.47;;
11139;SDS011;5624;49.388;11.350;2023-08-06T03:30:58;5.60;;;5.10;;
11139;SDS011;5624;49.388;11.350;2023-08-06T03:33:27;5.68;;;4.55;;
11139;SDS011;5624;49.388;11.350;2023-08-06T03:35:53;6.07;;;4.80;;
11139;SDS011;5624;49.388;11.350;2023-08-06T03:38:19;5.35;;;4.85;;
11139;SDS011;5624;49.388;11.350;2023-08-06T03:40:45;6.07;;;5.47;;
11139;SDS011;5624;49.388;11.350;2023-08-06T03:43:11;5.63;;;5.13;;
11139;SDS011;5624;49.388;11.350;2023-08-06T03:45:37;5.25;;;4.65;;
11139;SDS011;5624;49.388;11.350;2023-08-06T03:48:03;5.82;;;5.30;;
11139;SDS011;5624;49.388;11.350;2023-08-06T03:50:28;6.55;;;5.22;;
11139;SDS011;5624;49.388;11.350;2023-08-06T03:52:54;5.13;;;4.63;;
11139;SDS011;5624;49.388;11.350;2023-08-06T03:55:19;5.87;;;4.80;;
11139;SDS011;5624;49.388;11.350;2023-08-06T03:57:45;5.67;;;4.93;;
11139;SDS011;5624;49.388;11.350;2023-08-06T04:00:11;6.22;;;4.38;;
11139;SDS011;5624;49.388;11.350;2023-08-06T04:02:37;5.27;;;4.77;;
11139;SDS011;5624;49.388;11.350;2023-08-06T04:05:03;5.18;;;3.53;;
11139;SDS011;5624;49.388;11.350;2023-08-06T04:07:28;7.22;;;4.30;;
11139;SDS011;5624;49.388;11.350;2023-08-06T04:09:55;6.13;;;5.07;;
11139;SDS011;5624;49.388;11.350;2023-08-06T04:12:24;6.18;;;4.72;;
11139;SDS011;5624;49.388;11.350;2023-08-06T04:14:50;5.57;;;5.07;;
11139;SDS011;5624;49.388;11.350;2023-08-06T04:17:17;6.07;;;3.97;;
11139;SDS011;5624;49.388;11.350;2023-08-06T04:19:45;5.72;;;4.40;;
11139;SDS011;5624;49.388;11.350;2023-08-06T04:22:12;6.20;;;4.70;;
11139;SDS011;5624;49.388;11.350;2023-08-06T04:24:38;5.53;;;4.80;;
11139;SDS011;5624;49.388;11.350;2023-08-06T04:27:03;6.90;;;5.40;;
11139;SDS011;5624;49.388;11.350;2023-08-06T04:29:29;5.43;;;4.40;;
11139;SDS011;5624;49.388;11.350;2023-08-06T04:31:55;6.07;;;4.10;;
11139;SDS011;5624;49.388;11.350;2023-08-06T04:34:20;4.90;;;3.90;;
11139;SDS011;5624;49.388;11.350;2023-08-06T04:36:46;4.83;;;3.97;;
11139;SDS011;5624;49.388;11.350;2023-08-06T04:39:11;6.33;;;3.90;;
11139;SDS011;5624;49.388;11.350;2023-08-06T04:41:37;4.33;;;3.40;;
11139;SDS011;5624;49.388;11.350;2023-08-06T04:44:02;4.20;;;3.40;;
11139;SDS011;5624;49.388;11.350;2023-08-06T04:46:29;5.97;;;3.67;;
11139;SDS011;5624;49.388;11.350;2023-08-06T04:48:54;4.20;;;3.50;;
11139;SDS011;5624;49.388;11.350;2023-08-06T04:51:20;5.33;;;3.50;;
11139;SDS011;5624;49.388;11.350;2023-08-06T04:53:45;4.03;;;3.17;;
11139;SDS011;5624;49.388;11.350;2023-08-06T04:56:11;4.88;;;3.72;;
11139;SDS011;5624;49.388;11.350;2023-08-06T04:58:36;4.33;;;3.93;;
11139;SDS011;5624;49.388;11.350;2023-08-06T05:01:02;5.87;;;4.00;;
11139;SDS011;5624;49.388;11.350;2023-08-06T05:03:27;7.95;;;4.40;;
11139;SDS011;5624;49.388;11.350;2023-08-06T05:05:53;4.10;;;3.70;;
11139;SDS011;5624;49.388;11.350;2023-08-06T05:08:19;4.57;;;3.00;;
11139;SDS011;5624;49.388;11.350;2023-08-06T05:10:45;5.90;;;3.90;;
11139;SDS011;5624;49.388;11.350;2023-08-06T05:13:10;5.20;;;3.53;;
11139;SDS011;5624;49.388;11.350;2023-08-06T05:15:36;5.32;;;3.38;;
11139;SDS011;5624;49.388;11.350;2023-08-06T05:18:02;4.63;;;3.45;;
11139;SDS011;5624;49.388;11.350;2023-08-06T05:20:28;4.68;;;4.18;;
11139;SDS011;5624;49.388;11.350;2023-08-06T05:22:53;5.90;;;4.50;;
11139;SDS011;5624;49.388;11.350;2023-08-06T05:25:19;5.13;;;4.63;;
11139;SDS011;5624;49.388;11.350;2023-08-06T05:27:45;5.35;;;4.47;;
11139;SDS011;5624;49.388;11.350;2023-08-06T05:30:10;6.13;;;4.63;;
11139;SDS011;5624;49.388;11.350;2023-08-06T05:32:36;4.88;;;4.20;;
11139;SDS011;5624;49.388;11.350;2023-08-06T05:35:02;4.65;;;4.15;;
11139;SDS011;5624;49.388;11.350;2023-08-06T05:37:28;4.65;;;3.85;;
11139;SDS011;5624;49.388;11.350;2023-08-06T05:39:53;4.50;;;3.60;;
11139;SDS011;5624;49.388;11.350;2023-08-06T05:42:19;5.47;;;3.75;;
11139;SDS011;5624;49.388;11.350;2023-08-06T05:44:44;7.10;;;3.80;;
11139;SDS011;5624;49.388;11.350;2023-08-06T05:47:10;4.82;;;3.45;;
11139;SDS011;5624;49.388;11.350;2023-08-06T05:49:35;4.57;;;3.38;;
11139;SDS011;5624;49.388;11.350;2023-08-06T05:52:01;3.88;;;3.50;;
11139;SDS011;5624;49.388;11.350;2023-08-06T05:54:27;4.25;;;3.30;;
11139;SDS011;5624;49.388;11.350;2023-08-06T05:56:53;5.43;;;3.85;;
11139;SDS011;5624;49.388;11.350;2023-08-06T05:59:18;6.38;;;3.95;;
11139;SDS011;5624;49.388;11.350;2023-08-06T06:01:44;6.20;;;3.65;;
11139;SDS011;5624;49.388;11.350;2023-08-06T06:04:09;4.47;;;3.55;;
11139;SDS011;5624;49.388;11.350;2023-08-06T06:06:35;5.25;;;2.78;;
11139;SDS011;5624;49.388;11.350;2023-08-06T06:09:00;4.10;;;3.03;;
11139;SDS011;5624;49.388;11.350;2023-08-06T06:11:26;4.32;;;2.90;;
11139;SDS011;5624;49.388;11.350;2023-08-06T06:13:52;3.97;;;2.75;;
11139;SDS011;5624;49.388;11.350;2023-08-06T06:16:17;5.82;;;3.10;;
11139;SDS011;5624;49.388;11.350;2023-08-06T06:18:43;5.07;;;2.88;;
11139;SDS011;5624;49.388;11.350;2023-08-06T06:21:09;3.58;;;2.88;;
11139;SDS011;5624;49.388;11.350;2023-08-06T06:23:35;5.22;;;3.15;;
11139;SDS011;5624;49.388;11.350;2023-08-06T06:26:00;5.35;;;3.10;;
11139;SDS011;5624;49.388;11.350;2023-08-06T06:28:26;5.05;;;2.65;;
11139;SDS011;5624;49.388;11.350;2023-08-06T06:30:51;4.47;;;3.05;;
11139;SDS011;5624;49.388;11.350;2023-08-06T06:33:17;4.47;;;3.10;;
11139;SDS011;5624;49.388;11.350;2023-08-06T06:35:43;4.85;;;3.20;;
11139;SDS011;5624;49.388;11.350;2023-08-06T06:38:08;3.72;;;2.75;;
11139;SDS011;5624;49.388;11.350;2023-08-06T06:40:34;4.43;;;3.00;;
11139;SDS011;5624;49.388;11.350;2023-08-06T06:42:59;4.07;;;3.08;;
11139;SDS011;5624;49.388;11.350;2023-08-06T06:45:25;4.05;;;2.70;;
11139;SDS011;5624;49.388;11.350;2023-08-06T06:47:50;5.28;;;3.33;;
11139;SDS011;5624;49.388;11.350;2023-08-06T06:50:16;4.40;;;2.92;;
11139;SDS011;5624;49.388;11.350;2023-08-06T06:52:41;3.17;;;2.80;;
11139;SDS011;5624;49.388;11.350;2023-08-06T06:55:07;5.00;;;2.40;;
11139;SDS011;5624;49.388;11.350;2023-08-06T06:57:33;4.38;;;2.75;;
11139;SDS011;5624;49.388;11.350;2023-08-06T06:59:58;5.22;;;3.40;;
11139;SDS011;5624;49.388;11.350;2023-08-06T07:02:24;4.53;;;2.78;;
11139;SDS011;5624;49.388;11.350;2023-08-06T07:04:49;4.60;;;3.40;;
11139;SDS011;5624;49.388;11.350;2023-08-06T07:07:15;2.92;;;2.05;;
11139;SDS011;5624;49.388;11.350;2023-08-06T07:09:40;6.32;;;2.90;;
11139;SDS011;5624;49.388;11.350;2023-08-06T07:12:06;2.90;;;2.25;;
11139;SDS011;5624;49.388;11.350;2023-08-06T07:14:32;4.45;;;2.75;;
11139;SDS011;5624;49.388;11.350;2023-08-06T07:16:57;2.97;;;2.00;;
11139;SDS011;5624;49.388;11.350;2023-08-06T07:19:23;3.45;;;2.40;;
11139;SDS011;5624;49.388;11.350;2023-08-06T07:21:48;3.45;;;2.45;;
11139;SDS011;5624;49.388;11.350;2023-08-06T07:24:14;4.22;;;2.20;;
11139;SDS011;5624;49.388;11.350;2023-08-06T07:26:40;4.50;;;2.00;;
11139;SDS011;5624;49.388;11.350;2023-08-06T07:29:05;3.60;;;2.15;;
11139;SDS011;5624;49.388;11.350;2023-08-06T07:31:31;2.50;;;2.15;;
11139;SDS011;5624;49.388;11.350;2023-08-06T07:33:56;4.78;;;2.70;;
11139;SDS011;5624;49.388;11.350;2023-08-06T07:36:22;5.00;;;2.58;;
11139;SDS011;5624;49.388;11.350;2023-08-06T07:38:47;2.70;;;2.10;;
11139;SDS011;5624;49.388;11.350;2023-08-06T07:41:16;3.88;;;2.55;;
11139;SDS011;5624;49.388;11.350;2023-08-06T07:43:42;5.10;;;3.22;;
11139;SDS011;5624;49.388;11.350;2023-08-06T07:46:07;7.57;;;3.38;;
11139;SDS011;5624;49.388;11.350;2023-08-06T07:48:33;3.92;;;2.47;;
11139;SDS011;5624;49.388;11.350;2023-08-06T07:50:58;3.67;;;2.38;;
11139;SDS011;5624;49.388;11.350;2023-08-06T07:53:24;4.32;;;2.72;;
11139;SDS011;5624;49.388;11.350;2023-08-06T07:55:54;6.35;;;2.63;;
11139;SDS011;5624;49.388;11.350;2023-08-06T07:58:20;2.75;;;2.00;;
11139;SDS011;5624;49.388;11.350;2023-08-06T08:00:46;3.40;;;2.05;;
11139;SDS011;5624;49.388;11.350;2023-08-06T08:03:12;4.15;;;2.35;;
11139;SDS011;5624;49.388;11.350;2023-08-06T08:05:39;3.85;;;2.53;;
11139;SDS011;5624;49.388;11.350;2023-08-06T08:08:05;4.47;;;2.15;;
11139;SDS011;5624;49.388;11.350;2023-08-06T08:10:31;3.13;;;2.20;;
11139;SDS011;5624;49.388;11.350;2023-08-06T08:12:57;3.60;;;2.20;;
11139;SDS011;5624;49.388;11.350;2023-08-06T08:15:24;3.25;;;2.40;;
11139;SDS011;5624;49.388;11.350;2023-08-06T08:17:51;3.45;;;2.25;;
11139;SDS011;5624;49.388;11.350;2023-08-06T08:20:17;3.72;;;2.10;;
11139;SDS011;5624;49.388;11.350;2023-08-06T08:22:42;5.00;;;2.80;;
11139;SDS011;5624;49.388;11.350;2023-08-06T08:25:08;5.88;;;2.28;;
11139;SDS011;5624;49.388;11.350;2023-08-06T08:27:34;5.93;;;2.38;;
11139;SDS011;5624;49.388;11.350;2023-08-06T08:29:59;2.90;;;2.20;;
11139;SDS011;5624;49.388;11.350;2023-08-06T08:32:25;4.30;;;2.03;;
11139;SDS011;5624;49.388;11.350;2023-08-06T08:34:50;3.22;;;2.22;;
11139;SDS011;5624;49.388;11.350;2023-08-06T08:37:16;2.75;;;1.98;;
11139;SDS011;5624;49.388;11.350;2023-08-06T08:39:41;2.90;;;2.00;;
11139;SDS011;5624;49.388;11.350;2023-08-06T08:42:07;2.63;;;1.42;;
11139;SDS011;5624;49.388;11.350;2023-08-06T08:44:34;2.72;;;1.83;;
11139;SDS011;5624;49.388;11.350;2023-08-06T08:47:04;3.70;;;1.67;;
11139;SDS011;5624;49.388;11.350;2023-08-06T08:49:34;1.95;;;1.40;;
11139;SDS011;5624;49.388;11.350;2023-08-06T08:52:01;2.88;;;1.65;;
11139;SDS011;5624;49.388;11.350;2023-08-06T08:54:31;3.45;;;1.48;;
11139;SDS011;5624;49.388;11.350;2023-08-06T08:56:58;2.20;;;1.40;;
11139;SDS011;5624;49.388;11.350;2023-08-06T08:59:23;1.60;;;1.10;;
11139;SDS011;5624;49.388;11.350;2023-08-06T09:01:49;1.67;;;1.23;;
11139;SDS011;5624;49.388;11.350;2023-08-06T09:04:16;0.95;;;0.80;;
11139;SDS011;5624;49.388;11.350;2023-08-06T09:06:43;1.45;;;0.88;;
11139;SDS011;5624;49.388;11.350;2023-08-06T09:09:12;2.72;;;1.10;;
11139;SDS011;5624;49.388;11.350;2023-08-06T09:11:42;0.93;;;0.77;;
11139;SDS011;5624;49.388;11.350;2023-08-06T09:14:09;1.23;;;0.70;;
11139;SDS011;5624;49.388;11.350;2023-08-06T09:16:35;1.17;;;0.70;;
11139;SDS011;5624;49.388;11.350;2023-08-06T09:19:08;0.85;;;0.52;;
11139;SDS011;5624;49.388;11.350;2023-08-06T09:21:43;0.45;;;0.32;;
11139;SDS011;5624;49.388;11.350;2023-08-06T09:24:09;0.50;;;0.50;;
11139;SDS011;5624;49.388;11.350;2023-08-06T09:26:41;1.65;;;0.47;;
11139;SDS011;5624;49.388;11.350;2023-08-06T09:29:09;1.13;;;0.40;;
11139;SDS011;5624;49.388;11.350;2023-08-06T09:31:42;0.50;;;0.40;;
11139;SDS011;5624;49.388;11.350;2023-08-06T09:34:15;2.80;;;1.35;;
11139;SDS011;5624;49.388;11.350;2023-08-06T09:36:42;1.65;;;0.45;;
11139;SDS011;5624;49.388;11.350;2023-08-06T09:39:18;0.43;;;0.40;;
11139;SDS011;5624;49.388;11.350;2023-08-06T09:41:44;1.17;;;0.22;;
11139;SDS011;5624;49.388;11.350;2023-08-06T09:44:16;2.30;;;0.30;;
11139;SDS011;5624;49.388;11.350;2023-08-06T09:46:46;0.38;;;0.20;;
11139;SDS011;5624;49.388;11.350;2023-08-06T09:49:13;1.60;;;0.90;;
11139;SDS011;5624;49.388;11.350;2023-08-06T09:51:38;0.20;;;0.20;;
11139;SDS011;5624;49.388;11.350;2023-08-06T09:54:04;0.65;;;0.30;;
11139;SDS011;5624;49.388;11.350;2023-08-06T09:56:31;1.58;;;0.22;;
11139;SDS011;5624;49.388;11.350;2023-08-06T09:59:02;0.68;;;0.20;;
11139;SDS011;5624;49.388;11.350;2023-08-06T10:01:31;0.30;;;0.30;;
11139;SDS011;5624;49.388;11.350;2023-08-06T10:03:59;4.43;;;1.23;;
11139;SDS011;5624;49.388;11.350;2023-08-06T10:06:26;5.60;;;1.10;;
11139;SDS011;5624;49.388;11.350;2023-08-06T10:08:54;3.15;;;0.80;;
11139;SDS011;5624;49.388;11.350;2023-08-06T10:11:20;2.08;;;0.30;;
11139;SDS011;5624;49.388;11.350;2023-08-06T10:13:47;1.77;;;0.38;;
11139;SDS011;5624;49.388;11.350;2023-08-06T10:16:15;0.77;;;0.50;;
11139;SDS011;5624;49.388;11.350;2023-08-06T10:18:41;2.63;;;0.40;;
11139;SDS011;5624;49.388;11.350;2023-08-06T10:21:08;1.55;;;0.30;;
11139;SDS011;5624;49.388;11.350;2023-08-06T10:23:34;0.40;;;0.40;;
11139;SDS011;5624;49.388;11.350;2023-08-06T10:26:02;0.90;;;0.30;;
11139;SDS011;5624;49.388;11.350;2023-08-06T10:28:37;0.30;;;0.30;;
11139;SDS011;5624;49.388;11.350;2023-08-06T10:31:03;0.57;;;0.30;;
11139;SDS011;5624;49.388;11.350;2023-08-06T10:33:46;0.40;;;0.40;;
11139;SDS011;5624;49.388;11.350;2023-08-06T10:36:13;0.40;;;0.35;;
11139;SDS011;5624;49.388;11.350;2023-08-06T10:38:49;0.30;;;0.30;;
11139;SDS011;5624;49.388;11.350;2023-08-06T10:41:28;0.43;;;0.40;;
11139;SDS011;5624;49.388;11.350;2023-08-06T10:44:06;0.55;;;0.40;;
11139;SDS011;5624;49.388;11.350;2023-08-06T10:46:33;0.20;;;0.20;;
11139;SDS011;5624;49.388;11.350;2023-08-06T10:48:59;0.38;;;0.32;;
11139;SDS011;5624;49.388;11.350;2023-08-06T10:51:25;1.02;;;0.50;;
11139;SDS011;5624;49.388;11.350;2023-08-06T10:53:52;3.40;;;0.60;;
11139;SDS011;5624;49.388;11.350;2023-08-06T10:56:21;0.82;;;0.30;;
11139;SDS011;5624;49.388;11.350;2023-08-06T10:58:48;1.48;;;0.50;;
11139;SDS011;5624;49.388;11.350;2023-08-06T11:01:15;1.85;;;0.43;;
11139;SDS011;5624;49.388;11.350;2023-08-06T11:03:41;2.60;;;0.30;;
11139;SDS011;5624;49.388;11.350;2023-08-06T11:06:08;0.22;;;0.22;;
11139;SDS011;5624;49.388;11.350;2023-08-06T11:08:38;0.20;;;0.20;;
11139;SDS011;5624;49.388;11.350;2023-08-06T11:11:09;1.35;;;1.08;;
11139;SDS011;5624;49.388;11.350;2023-08-06T11:13:37;0.57;;;0.38;;
11139;SDS011;5624;49.388;11.350;2023-08-06T11:16:05;0.32;;;0.30;;
11139;SDS011;5624;49.388;11.350;2023-08-06T11:18:31;0.20;;;0.20;;
11139;SDS011;5624;49.388;11.350;2023-08-06T11:20:58;0.47;;;0.20;;
11139;SDS011;5624;49.388;11.350;2023-08-06T11:23:26;0.82;;;0.20;;
11139;SDS011;5624;49.388;11.350;2023-08-06T11:25:53;0.22;;;0.20;;
11139;SDS011;5624;49.388;11.350;2023-08-06T11:28:19;0.20;;;0.20;;
11139;SDS011;5624;49.388;11.350;2023-08-06T11:30:46;0.30;;;0.20;;
11139;SDS011;5624;49.388;11.350;2023-08-06T11:33:12;0.20;;;0.20;;
11139;SDS011;5624;49.388;11.350;2023-08-06T11:35:38;0.20;;;0.20;;
11139;SDS011;5624;49.388;11.350;2023-08-06T11:38:04;0.30;;;0.20;;
11139;SDS011;5624;49.388;11.350;2023-08-06T11:40:31;0.10;;;0.10;;
11139;SDS011;5624;49.388;11.350;2023-08-06T11:42:57;1.13;;;0.20;;
11139;SDS011;5624;49.388;11.350;2023-08-06T11:45:26;0.13;;;0.13;;
11139;SDS011;5624;49.388;11.350;2023-08-06T11:47:52;0.20;;;0.20;;
11139;SDS011;5624;49.388;11.350;2023-08-06T11:50:21;0.43;;;0.32;;
11139;SDS011;5624;49.388;11.350;2023-08-06T11:52:55;0.10;;;0.10;;
11139;SDS011;5624;49.388;11.350;2023-08-06T11:55:23;0.45;;;0.25;;
11139;SDS011;5624;49.388;11.350;2023-08-06T11:57:49;0.15;;;0.15;;
11139;SDS011;5624;49.388;11.350;2023-08-06T12:00:15;0.93;;;0.30;;
11139;SDS011;5624;49.388;11.350;2023-08-06T12:02:43;0.30;;;0.30;;
11139;SDS011;5624;49.388;11.350;2023-08-06T12:05:13;0.30;;;0.20;;
11139;SDS011;5624;49.388;11.350;2023-08-06T12:07:41;0.57;;;0.20;;
11139;SDS011;5624;49.388;11.350;2023-08-06T12:10:09;0.15;;;0.10;;
11139;SDS011;5624;49.388;11.350;2023-08-06T12:12:35;0.20;;;0.20;;
11139;SDS011;5624;49.388;11.350;2023-08-06T12:15:03;0.73;;;0.30;;
11139;SDS011;5624;49.388;11.350;2023-08-06T12:17:29;0.20;;;0.20;;
11139;SDS011;5624;49.388;11.350;2023-08-06T12:19:55;0.20;;;0.20;;
11139;SDS011;5624;49.388;11.350;2023-08-06T12:22:20;0.25;;;0.20;;
11139;SDS011;5624;49.388;11.350;2023-08-06T12:24:46;1.58;;;0.28;;
11139;SDS011;5624;49.388;11.350;2023-08-06T12:27:12;0.43;;;0.20;;
11139;SDS011;5624;49.388;11.350;2023-08-06T12:29:41;0.30;;;0.30;;
11139;SDS011;5624;49.388;11.350;2023-08-06T12:32:10;0.57;;;0.10;;
11139;SDS011;5624;49.388;11.350;2023-08-06T12:34:40;0.30;;;0.20;;
11139;SDS011;5624;49.388;11.350;2023-08-06T12:37:06;0.15;;;0.13;;
11139;SDS011;5624;49.388;11.350;2023-08-06T12:39:32;1.90;;;1.33;;
11139;SDS011;5624;49.388;11.350;2023-08-06T12:41:59;1.48;;;0.70;;
11139;SDS011;5624;49.388;11.350;2023-08-06T12:44:25;2.17;;;0.80;;
11139;SDS011;5624;49.388;11.350;2023-08-06T12:46:51;1.80;;;0.77;;
11139;SDS011;5624;49.388;11.350;2023-08-06T12:49:17;1.38;;;0.52;;
11139;SDS011;5624;49.388;11.350;2023-08-06T12:51:43;0.45;;;0.30;;
11139;SDS011;5624;49.388;11.350;2023-08-06T12:54:08;0.50;;;0.30;;
11139;SDS011;5624;49.388;11.350;2023-08-06T12:56:34;0.10;;;0.10;;
11139;SDS011;5624;49.388;11.350;2023-08-06T12:58:59;0.30;;;0.20;;
11139;SDS011;5624;49.388;11.350;2023-08-06T13:01:25;1.65;;;0.30;;
11139;SDS011;5624;49.388;11.350;2023-08-06T13:03:50;0.25;;;0.20;;
11139;SDS011;5624;49.388;11.350;2023-08-06T13:06:16;1.45;;;0.30;;
11139;SDS011;5624;49.388;11.350;2023-08-06T13:08:41;0.38;;;0.38;;
11139;SDS011;5624;49.388;11.350;2023-08-06T13:11:07;0.43;;;0.40;;
11139;SDS011;5624;49.388;11.350;2023-08-06T13:13:33;0.20;;;0.20;;
11139;SDS011;5624;49.388;11.350;2023-08-06T13:15:59;0.10;;;0.10;;
11139;SDS011;5624;49.388;11.350;2023-08-06T13:18:25;0.10;;;0.10;;
11139;SDS011;5624;49.388;11.350;2023-08-06T13:20:53;1.17;;;0.20;;
11139;SDS011;5624;49.388;11.350;2023-08-06T13:23:19;0.20;;;0.20;;
11139;SDS011;5624;49.388;11.350;2023-08-06T13:25:45;0.40;;;0.30;;
11139;SDS011;5624;49.388;11.350;2023-08-06T13:28:10;0.50;;;0.20;;
11139;SDS011;5624;49.388;11.350;2023-08-06T13:30:36;0.20;;;0.20;;
11139;SDS011;5624;49.388;11.350;2023-08-06T13:33:06;0.98;;;0.50;;
11139;SDS011;5624;49.388;11.350;2023-08-06T13:35:36;0.30;;;0.20;;
11139;SDS011;5624;49.388;11.350;2023-08-06T13:38:02;0.20;;;0.20;;
11139;SDS011;5624;49.388;11.350;2023-08-06T13:40:32;0.20;;;0.20;;
11139;SDS011;5624;49.388;11.350;2023-08-06T13:42:58;0.68;;;0.38;;
11139;SDS011;5624;49.388;11.350;2023-08-06T13:45:24;0.20;;;0.20;;
11139;SDS011;5624;49.388;11.350;2023-08-06T13:47:49;1.00;;;0.40;;
11139;SDS011;5624;49.388;11.350;2023-08-06T13:50:15;0.57;;;0.45;;
11139;SDS011;5624;49.388;11.350;2023-08-06T13:52:41;0.63;;;0.20;;
11139;SDS011;5624;49.388;11.350;2023-08-06T13:55:06;0.35;;;0.20;;
11139;SDS011;5624;49.388;11.350;2023-08-06T13:57:33;1.02;;;0.40;;
11139;SDS011;5624;49.388;11.350;2023-08-06T13:59:59;0.38;;;0.20;;
11139;SDS011;5624;49.388;11.350;2023-08-06T14:02:25;0.63;;;0.22;;
11139;SDS011;5624;49.388;11.350;2023-08-06T14:04:53;0.40;;;0.40;;
11139;SDS011;5624;49.388;11.350;2023-08-06T14:07:19;1.85;;;1.45;;
11139;SDS011;5624;49.388;11.350;2023-08-06T14:09:45;1.70;;;1.48;;
11139;SDS011;5624;49.388;11.350;2023-08-06T14:12:12;1.63;;;1.27;;
11139;SDS011;5624;49.388;11.350;2023-08-06T14:14:37;0.38;;;0.30;;
11139;SDS011;5624;49.388;11.350;2023-08-06T14:17:03;0.20;;;0.20;;
11139;SDS011;5624;49.388;11.350;2023-08-06T14:19:29;1.10;;;0.30;;
11139;SDS011;5624;49.388;11.350;2023-08-06T14:21:54;0.47;;;0.30;;
11139;SDS011;5624;49.388;11.350;2023-08-06T14:24:20;0.30;;;0.30;;
11139;SDS011;5624;49.388;11.350;2023-08-06T14:26:46;0.35;;;0.35;;
11139;SDS011;5624;49.388;11.350;2023-08-06T14:29:11;0.22;;;0.22;;
11139;SDS011;5624;49.388;11.350;2023-08-06T14:31:38;0.45;;;0.30;;
11139;SDS011;5624;49.388;11.350;2023-08-06T14:34:04;1.88;;;0.40;;
11139;SDS011;5624;49.388;11.350;2023-08-06T14:36:30;0.52;;;0.30;;
11139;SDS011;5624;49.388;11.350;2023-08-06T14:38:56;0.20;;;0.20;;
11139;SDS011;5624;49.388;11.350;2023-08-06T14:41:21;0.43;;;0.32;;
11139;SDS011;5624;49.388;11.350;2023-08-06T14:43:47;0.50;;;0.40;;
11139;SDS011;5624;49.388;11.350;2023-08-06T14:46:12;0.50;;;0.50;;
11139;SDS011;5624;49.388;11.350;2023-08-06T14:48:38;0.43;;;0.38;;
11139;SDS011;5624;49.388;11.350;2023-08-06T14:51:04;1.38;;;0.47;;